Time;durP1;ratioP1;P1;durP2;ratioP2;P2;SDS_P1;SDS_P2;PMS_P1;PMS_P2;Temp;Humidity;BMP_temperature;BMP_pressure;BME280_temperature;BME280_humidity;BME280_pressure;Samples;Min_cycle;Max_cycle;Signal;HPM_P1;HPM_P2
2022/12/26 00:00:15;;;;;;;3.33;2.13;;;19.50;65.50;;;;;;5072350;28;20041;-68
2022/12/26 00:02:41;;;;;;;3.05;2.05;;;19.50;65.40;;;;;;5072506;28;20050;-69
2022/12/26 00:05:07;;;;;;;2.78;2.00;;;19.50;65.40;;;;;;5071250;28;20130;-69
2022/12/26 00:07:32;;;;;;;2.80;2.10;;;19.40;65.30;;;;;;5071584;28;20546;-68
2022/12/26 00:09:58;;;;;;;4.13;2.20;;;19.40;65.30;;;;;;5068100;28;20075;-68
2022/12/26 00:12:23;;;;;;;3.28;2.15;;;19.40;65.20;;;;;;5071110;28;20498;-68
2022/12/26 00:14:49;;;;;;;4.30;2.30;;;19.40;65.20;;;;;;5070901;28;20095;-68
2022/12/26 00:17:14;;;;;;;3.50;2.15;;;19.40;65.20;;;;;;5070978;28;20044;-68
2022/12/26 00:19:40;;;;;;;4.45;2.10;;;19.40;65.20;;;;;;5070116;28;20048;-68
2022/12/26 00:22:05;;;;;;;3.08;2.00;;;19.40;65.10;;;;;;5071153;28;20050;-68
2022/12/26 00:24:31;;;;;;;3.20;2.13;;;19.40;65.00;;;;;;5071729;28;20036;-68
2022/12/26 00:26:56;;;;;;;3.08;1.83;;;19.40;65.00;;;;;;5069852;28;20071;-68
2022/12/26 00:29:22;;;;;;;2.85;1.90;;;19.40;64.90;;;;;;5071479;28;20036;-68
2022/12/26 00:31:48;;;;;;;3.30;2.22;;;19.30;64.80;;;;;;5070686;28;20036;-68
2022/12/26 00:34:14;;;;;;;3.45;2.20;;;19.40;64.90;;;;;;5070882;28;20056;-68
2022/12/26 00:36:39;;;;;;;3.00;1.95;;;19.40;64.90;;;;;;5071959;28;20147;-68
2022/12/26 00:39:05;;;;;;;2.83;1.90;;;19.40;64.90;;;;;;5071726;28;20041;-68
2022/12/26 00:41:31;;;;;;;3.42;2.25;;;19.40;64.80;;;;;;5070796;28;20090;-68
2022/12/26 00:43:56;;;;;;;3.08;1.83;;;19.30;64.70;;;;;;5071940;28;20127;-68
2022/12/26 00:46:22;;;;;;;3.85;1.88;;;19.30;64.70;;;;;;5070956;28;20380;-68
2022/12/26 00:48:47;;;;;;;2.35;1.90;;;19.30;64.60;;;;;;5074492;28;20074;-68
2022/12/26 00:51:13;;;;;;;2.63;2.10;;;19.30;64.60;;;;;;5075725;28;20041;-68
2022/12/26 00:53:39;;;;;;;2.97;2.00;;;19.30;64.60;;;;;;5076156;28;20071;-68
2022/12/26 00:56:05;;;;;;;3.30;2.00;;;19.30;64.50;;;;;;5075576;28;20044;-67
2022/12/26 00:58:30;;;;;;;4.00;2.10;;;19.30;64.40;;;;;;5074548;28;20047;-68
2022/12/26 01:01:24;;;;;;;4.65;1.95;;;19.30;64.40;;;;;;5075097;28;20135;-68
2022/12/26 01:03:50;;;;;;;2.60;2.03;;;19.20;64.90;;;;;;5074999;28;20048;-68
2022/12/26 01:06:15;;;;;;;2.88;1.95;;;19.20;64.30;;;;;;5074185;28;20388;-68
2022/12/26 01:08:41;;;;;;;3.50;2.00;;;19.20;64.30;;;;;;5074756;28;20041;-68
2022/12/26 01:11:09;;;;;;;3.33;2.03;;;19.20;64.20;;;;;;5074408;28;20470;-68
2022/12/26 01:13:34;;;;;;;2.60;2.08;;;19.20;64.80;;;;;;5075412;28;20083;-68
2022/12/26 01:16:00;;;;;;;2.75;1.75;;;19.20;64.20;;;;;;5074649;28;20409;-67
2022/12/26 01:18:26;;;;;;;2.50;1.88;;;19.20;64.20;;;;;;5075230;28;20046;-68
2022/12/26 01:20:56;;;;;;;3.00;1.92;;;19.20;64.20;;;;;;5075357;28;20044;-68
2022/12/26 01:23:21;;;;;;;2.58;1.70;;;19.20;64.10;;;;;;5057387;28;20056;-68
2022/12/26 01:25:47;;;;;;;2.50;1.85;;;19.20;64.10;;;;;;5075471;28;20033;-68
2022/12/26 01:28:12;;;;;;;2.45;1.65;;;19.20;64.10;;;;;;5075675;28;20135;-67
2022/12/26 01:30:38;;;;;;;2.75;1.70;;;19.20;64.10;;;;;;5074574;28;20041;-68
2022/12/26 01:33:04;;;;;;;2.80;2.05;;;19.20;64.10;;;;;;5069985;28;20036;-68
2022/12/26 01:35:30;;;;;;;3.22;2.08;;;19.20;64.20;;;;;;5073749;28;20518;-68
2022/12/26 01:37:55;;;;;;;3.53;1.90;;;19.20;64.10;;;;;;5074721;28;20131;-68
2022/12/26 01:40:21;;;;;;;3.08;1.75;;;19.20;64.20;;;;;;5073999;28;20581;-68
2022/12/26 01:42:46;;;;;;;2.75;1.73;;;19.20;64.20;;;;;;5075720;28;20044;-68
2022/12/26 01:45:26;;;;;;;3.42;1.90;;;19.20;64.20;;;;;;5074429;28;20032;-68
2022/12/26 01:47:54;;;;;;;2.70;1.70;;;19.20;64.10;;;;;;5075391;28;20066;-68
2022/12/26 01:50:48;;;;;;;1.88;1.38;;;19.20;64.10;;;;;;5074128;28;20047;-68
2022/12/26 01:53:17;;;;;;;2.05;1.45;;;19.20;64.10;;;;;;5071849;28;20130;-68
2022/12/26 01:55:44;;;;;;;2.53;1.80;;;19.20;64.10;;;;;;5074320;28;20484;-68
2022/12/26 01:58:13;;;;;;;2.40;1.55;;;19.20;64.10;;;;;;5073866;28;20059;-68
2022/12/26 02:00:38;;;;;;;2.03;1.50;;;19.20;64.10;;;;;;5074283;28;20044;-68
2022/12/26 02:05:49;;;;;;;3.40;1.45;;;19.20;64.00;;;;;;5073565;28;20053;-69
2022/12/26 02:08:16;;;;;;;2.10;1.30;;;19.20;64.00;;;;;;5073502;28;20044;-69
2022/12/26 02:10:47;;;;;;;2.92;1.60;;;19.20;64.00;;;;;;5074149;28;20040;-69
2022/12/26 02:13:12;;;;;;;2.42;1.52;;;19.30;64.00;;;;;;5055936;28;20114;-68
2022/12/26 02:15:38;;;;;;;3.47;1.60;;;19.30;64.00;;;;;;5074893;28;20044;-68
2022/12/26 02:18:04;;;;;;;2.00;1.40;;;19.30;64.00;;;;;;5074319;28;20408;-68
2022/12/26 02:20:37;;;;;;;2.20;1.48;;;19.30;63.90;;;;;;5074090;28;20037;-69
2022/12/26 02:23:17;;;;;;;2.55;1.10;;;19.30;64.00;;;;;;5056905;28;20097;-68
2022/12/26 02:26:06;;;;;;;1.70;1.10;;;19.30;63.90;;;;;;5073063;28;20048;-68
2022/12/26 02:28:48;;;;;;;1.83;1.38;;;19.30;63.90;;;;;;5073232;28;20329;-68
2022/12/26 02:31:29;;;;;;;2.30;1.27;;;19.30;63.80;;;;;;5073210;28;20032;-68
2022/12/26 02:34:04;;;;;;;2.70;1.40;;;19.30;63.80;;;;;;5068868;28;20072;-68
2022/12/26 02:36:45;;;;;;;2.20;1.27;;;19.30;63.80;;;;;;5073142;28;20097;-68
2022/12/26 02:39:36;;;;;;;2.13;1.50;;;19.30;63.80;;;;;;5072713;28;20044;-68
2022/12/26 02:42:59;;;;;;;2.83;1.60;;;19.30;63.80;;;;;;5073115;28;20056;-68
2022/12/26 02:48:43;;;;;;;2.10;1.27;;;19.40;63.70;;;;;;5020143;28;20049;-68
2022/12/26 03:14:33;;;;;;;1.80;1.20;;;19.40;63.50;;;;;;5034186;28;20065;-68
2022/12/26 03:17:19;;;;;;;2.65;1.40;;;19.40;63.50;;;;;;5034091;28;20072;-68
2022/12/26 03:20:01;;;;;;;2.47;1.35;;;19.40;63.40;;;;;;5018228;28;20057;-68
2022/12/26 03:22:29;;;;;;;2.10;1.40;;;19.40;63.40;;;;;;5015727;28;20068;-68
2022/12/26 03:27:39;;;;;;;2.28;1.45;;;19.40;63.30;;;;;;5033006;28;20125;-68
2022/12/26 03:32:49;;;;;;;2.20;1.30;;;19.40;63.40;;;;;;5033865;28;20045;-68
2022/12/26 03:35:14;;;;;;;1.50;1.20;;;19.40;63.30;;;;;;5033280;28;20047;-68
2022/12/26 03:37:49;;;;;;;2.30;1.33;;;19.40;63.30;;;;;;5031673;28;20050;-68
2022/12/26 04:44:42;;;;;;;2.15;1.40;;;19.80;62.90;;;;;;5031297;28;20456;-68
2022/12/26 04:47:08;;;;;;;1.35;0.90;;;19.70;62.80;;;;;;5030883;28;20045;-68
2022/12/26 04:55:12;;;;;;;1.50;1.05;;;19.80;62.80;;;;;;5031488;28;20049;-68
2022/12/26 04:57:37;;;;;;;1.50;0.98;;;19.80;62.80;;;;;;5032178;28;20050;-68
2022/12/26 05:00:04;;;;;;;1.45;1.05;;;19.80;62.70;;;;;;5026199;28;20537;-68
2022/12/26 05:10:42;;;;;;;2.05;0.93;;;19.90;62.70;;;;;;5031268;28;20046;-68
2022/12/26 05:13:08;;;;;;;1.80;1.10;;;19.90;62.70;;;;;;5032034;28;20061;-68
2022/12/26 05:28:40;;;;;;;1.50;1.02;;;19.90;62.70;;;;;;5029993;28;20100;-68
2022/12/26 05:29:16;;;;;;;1.50;1.10;;;19.90;62.50;;;;;;5030937;28;20054;-68
2022/12/26 05:31:41;;;;;;;3.05;1.40;;;19.90;62.40;;;;;;5032382;28;20037;-68
2022/12/26 05:34:09;;;;;;;1.90;1.15;;;20.00;62.50;;;;;;5034016;28;20068;-68
2022/12/26 05:36:38;;;;;;;2.13;1.10;;;20.00;62.50;;;;;;5035022;28;20513;-68
2022/12/26 05:39:04;;;;;;;2.28;1.27;;;19.90;62.30;;;;;;5034756;28;20312;-68
2022/12/26 05:41:30;;;;;;;2.22;1.55;;;20.00;62.40;;;;;;5034135;28;20084;-68
2022/12/26 05:43:56;;;;;;;2.05;1.35;;;20.00;62.30;;;;;;5033769;28;20069;-68
2022/12/26 05:46:21;;;;;;;2.28;1.38;;;20.00;62.20;;;;;;5035273;28;20044;-68
2022/12/26 05:48:47;;;;;;;1.65;1.17;;;20.00;62.20;;;;;;5035574;28;20393;-68
2022/12/26 05:51:12;;;;;;;1.90;1.30;;;20.00;62.20;;;;;;5033240;28;20102;-68
2022/12/26 05:53:38;;;;;;;1.88;1.20;;;20.00;62.30;;;;;;5034290;28;20124;-68
2022/12/26 05:56:04;;;;;;;2.15;1.50;;;20.00;62.20;;;;;;5035365;28;20029;-68
2022/12/26 05:58:30;;;;;;;2.13;1.38;;;20.00;62.10;;;;;;5034468;28;20515;-68
2022/12/26 06:01:15;;;;;;;2.05;1.10;;;20.00;62.10;;;;;;5035195;28;20202;-68
2022/12/26 06:03:46;;;;;;;1.35;1.13;;;20.00;62.10;;;;;;5034504;28;20049;-68
2022/12/26 06:06:11;;;;;;;1.95;1.25;;;20.10;62.10;;;;;;5033924;28;20432;-68
2022/12/26 06:08:37;;;;;;;1.73;1.20;;;20.00;62.00;;;;;;5033747;28;20543;-69
2022/12/26 06:11:04;;;;;;;2.03;1.08;;;20.00;62.00;;;;;;5031825;28;20045;-68
2022/12/26 06:13:30;;;;;;;2.25;1.20;;;20.00;62.00;;;;;;5034712;28;20060;-68
2022/12/26 06:15:55;;;;;;;1.73;1.20;;;20.10;62.00;;;;;;5035067;28;20045;-68
2022/12/26 06:18:21;;;;;;;1.85;1.35;;;20.10;62.00;;;;;;5033767;28;20413;-68
2022/12/26 06:20:46;;;;;;;2.15;1.20;;;20.10;61.90;;;;;;5033416;28;20094;-68
2022/12/26 06:23:12;;;;;;;1.65;1.23;;;20.10;61.90;;;;;;5034757;28;20053;-68
2022/12/26 06:25:37;;;;;;;2.50;1.42;;;20.10;61.90;;;;;;5032887;28;20037;-68
2022/12/26 06:28:03;;;;;;;1.95;1.30;;;20.10;61.80;;;;;;5034371;28;20051;-68
2022/12/26 06:30:28;;;;;;;1.90;1.15;;;20.10;61.90;;;;;;5033229;28;20129;-68
2022/12/26 06:32:54;;;;;;;2.17;1.30;;;20.10;61.80;;;;;;5034183;28;20046;-68
2022/12/26 06:35:19;;;;;;;3.20;1.50;;;20.10;61.80;;;;;;5034270;28;20042;-68
2022/12/26 06:37:45;;;;;;;1.83;1.20;;;20.10;61.80;;;;;;5032644;28;20124;-68
2022/12/26 06:40:11;;;;;;;2.67;1.38;;;20.20;61.80;;;;;;5033629;28;20049;-68
2022/12/26 06:42:36;;;;;;;1.98;1.30;;;20.10;61.70;;;;;;5033240;28;20041;-67
2022/12/26 06:45:02;;;;;;;1.85;1.27;;;20.10;61.70;;;;;;5033794;28;20128;-69
2022/12/26 06:47:27;;;;;;;2.33;1.40;;;20.10;61.70;;;;;;5033477;28;20099;-66
2022/12/26 06:49:53;;;;;;;2.80;1.30;;;20.10;61.60;;;;;;5034391;28;20042;-69
2022/12/26 06:52:19;;;;;;;2.55;1.08;;;20.20;61.60;;;;;;5033692;28;20049;-69
2022/12/26 06:54:44;;;;;;;2.75;1.13;;;20.20;61.50;;;;;;5033778;28;20383;-66
2022/12/26 06:57:10;;;;;;;4.65;1.33;;;20.30;61.50;;;;;;5032741;28;20115;-63
2022/12/26 06:59:35;;;;;;;4.38;1.50;;;20.30;61.40;;;;;;5033499;28;20045;-64
2022/12/26 07:02:01;;;;;;;2.70;1.40;;;20.30;61.30;;;;;;5050290;28;20132;-64
2022/12/26 07:04:26;;;;;;;4.35;1.20;;;20.40;61.30;;;;;;5053579;28;20083;-63
2022/12/26 07:06:52;;;;;;;4.93;1.60;;;20.40;61.30;;;;;;5053039;28;20055;-68
2022/12/26 07:09:17;;;;;;;3.42;1.50;;;20.50;61.30;;;;;;5047117;28;20056;-62
2022/12/26 07:11:47;;;;;;;3.33;1.60;;;20.50;61.30;;;;;;5039152;28;20041;-63
2022/12/26 07:14:13;;;;;;;2.88;1.90;;;20.50;61.40;;;;;;5045677;28;20118;-64
2022/12/26 07:16:40;;;;;;;3.72;1.83;;;20.60;61.70;;;;;;5052343;28;20484;-63
2022/12/26 07:19:06;;;;;;;3.85;1.67;;;20.60;61.80;;;;;;5047011;28;20108;-65
2022/12/26 07:21:32;;;;;;;2.05;1.33;;;20.70;61.90;;;;;;5050436;28;20033;-63
2022/12/26 07:23:57;;;;;;;3.72;1.60;;;20.70;61.90;;;;;;5052757;28;20041;-62
2022/12/26 07:26:23;;;;;;;2.40;1.70;;;20.70;61.90;;;;;;5046734;28;20050;-63
2022/12/26 07:28:56;;;;;;;5.13;1.67;;;20.80;61.90;;;;;;5041043;28;20052;-64
2022/12/26 07:31:22;;;;;;;3.85;1.60;;;20.80;61.90;;;;;;5057421;28;20041;-61
2022/12/26 07:33:48;;;;;;;4.15;1.42;;;20.80;61.80;;;;;;5032727;28;20056;-64
2022/12/26 07:36:14;;;;;;;4.18;1.80;;;20.80;61.70;;;;;;5050391;28;20041;-63
2022/12/26 07:38:40;;;;;;;3.50;1.67;;;20.80;61.70;;;;;;5051179;28;20060;-63
2022/12/26 07:43:49;;;;;;;4.75;1.60;;;20.90;61.80;;;;;;5044363;28;20123;-62
2022/12/26 07:46:15;;;;;;;4.95;1.48;;;20.90;61.90;;;;;;5055938;28;20179;-65
2022/12/26 07:48:40;;;;;;;5.38;1.65;;;20.90;61.90;;;;;;5054446;28;20118;-64
2022/12/26 07:51:06;;;;;;;7.68;1.67;;;21.00;62.00;;;;;;5053390;28;20029;-64
2022/12/26 07:53:31;;;;;;;5.20;1.77;;;21.00;62.20;;;;;;5050709;28;20528;-66
2022/12/26 07:56:00;;;;;;;4.97;1.90;;;21.00;62.30;;;;;;5051447;28;20041;-65
2022/12/26 07:58:25;;;;;;;3.28;1.52;;;21.10;62.60;;;;;;5052063;28;20090;-65
2022/12/26 08:00:51;;;;;;;6.03;1.67;;;21.10;62.60;;;;;;5052703;28;20119;-65
2022/12/26 08:03:16;;;;;;;3.10;1.50;;;21.10;62.60;;;;;;5051613;28;20045;-64
2022/12/26 08:05:48;;;;;;;4.28;1.40;;;21.10;62.70;;;;;;5051885;28;20056;-64
2022/12/26 08:08:14;;;;;;;5.03;1.50;;;21.10;62.80;;;;;;5051152;28;20053;-65
2022/12/26 08:10:40;;;;;;;5.55;1.73;;;21.20;62.90;;;;;;5051769;28;20037;-64
2022/12/26 08:13:05;;;;;;;4.75;2.03;;;21.20;62.90;;;;;;5051962;28;20115;-65
2022/12/26 08:15:31;;;;;;;2.95;1.60;;;21.20;63.00;;;;;;5050490;28;20041;-64
2022/12/26 08:17:56;;;;;;;2.95;1.33;;;21.20;63.00;;;;;;5051558;28;20063;-63
2022/12/26 08:20:22;;;;;;;4.57;1.50;;;21.20;63.10;;;;;;5051917;28;20102;-64
2022/12/26 08:22:48;;;;;;;3.47;1.42;;;21.20;63.20;;;;;;5052554;28;20045;-62
2022/12/26 08:25:13;;;;;;;2.22;1.27;;;21.10;63.20;;;;;;5051246;28;20120;-63
2022/12/26 08:27:39;;;;;;;6.70;1.50;;;21.20;63.30;;;;;;5051807;28;20548;-63
2022/12/26 08:30:05;;;;;;;5.95;1.80;;;21.20;63.20;;;;;;5051485;28;20480;-65
2022/12/26 08:32:31;;;;;;;2.58;1.10;;;21.20;63.10;;;;;;5045414;28;20132;-62
2022/12/26 08:34:56;;;;;;;3.38;1.52;;;21.10;63.00;;;;;;5051651;28;20112;-63
2022/12/26 08:37:24;;;;;;;3.30;1.35;;;21.10;62.90;;;;;;5050785;28;20037;-62
2022/12/26 08:39:52;;;;;;;;;;;21.10;62.90;;;;;;5051179;28;20076;-62
2022/12/26 08:42:18;;;;;;;3.97;1.80;;;21.10;63.10;;;;;;5051757;28;19929;-61
2022/12/26 08:44:44;;;;;;;7.57;1.67;;;21.10;63.10;;;;;;5050090;28;20063;-63
2022/12/26 08:47:09;;;;;;;8.35;2.10;;;21.10;63.20;;;;;;5050634;28;20052;-66
2022/12/26 08:49:35;;;;;;;8.75;2.15;;;21.10;63.10;;;;;;5051374;28;20511;-67
2022/12/26 08:52:01;;;;;;;6.88;1.95;;;21.10;62.90;;;;;;5051118;28;20041;-71
2022/12/26 08:54:26;;;;;;;6.57;2.03;;;21.00;62.70;;;;;;5051858;28;20048;-65
2022/12/26 08:56:52;;;;;;;9.88;2.20;;;21.00;62.60;;;;;;5052019;28;20371;-65
2022/12/26 08:59:17;;;;;;;4.32;1.83;;;21.00;62.60;;;;;;5050708;28;20446;-65
2022/12/26 09:01:43;;;;;;;5.93;1.80;;;21.00;62.40;;;;;;5045434;28;20080;-64
2022/12/26 09:04:08;;;;;;;7.22;1.95;;;21.00;62.20;;;;;;5051174;28;20051;-64
2022/12/26 09:06:35;;;;;;;8.15;2.40;;;20.90;62.10;;;;;;5051327;28;20052;-63
2022/12/26 09:09:01;;;;;;;6.40;1.90;;;20.90;62.00;;;;;;5052589;28;20115;-63
2022/12/26 09:11:26;;;;;;;5.30;1.75;;;20.90;61.90;;;;;;5054824;28;20164;-63
2022/12/26 09:13:52;;;;;;;6.93;1.73;;;20.90;61.90;;;;;;5054581;28;20106;-69
2022/12/26 09:16:20;;;;;;;6.28;2.03;;;20.90;61.80;;;;;;5054440;28;20049;-63
2022/12/26 09:18:45;;;;;;;4.93;1.40;;;20.90;61.80;;;;;;5054624;28;20037;-62
2022/12/26 09:21:12;;;;;;;4.80;1.85;;;20.90;61.90;;;;;;5053692;28;20493;-61
2022/12/26 09:23:38;;;;;;;7.50;1.80;;;20.90;61.90;;;;;;5054855;28;20130;-61
2022/12/26 09:26:09;;;;;;;4.65;1.80;;;20.90;62.00;;;;;;5055148;28;20072;-61
2022/12/26 09:28:34;;;;;;;5.43;1.48;;;20.90;62.00;;;;;;5051698;28;20146;-61
2022/12/26 09:31:01;;;;;;;9.23;1.90;;;20.90;62.00;;;;;;5054709;28;20491;-61
2022/12/26 09:33:27;;;;;;;4.10;1.70;;;20.90;62.00;;;;;;5054621;28;20049;-62
2022/12/26 09:35:52;;;;;;;7.68;1.77;;;20.90;62.00;;;;;;5054057;28;20124;-62
2022/12/26 09:38:19;;;;;;;3.92;1.90;;;20.90;62.00;;;;;;5054771;28;20174;-63
2022/12/26 09:41:03;;;;;;;5.82;1.90;;;20.80;62.00;;;;;;5054723;28;20047;-63
2022/12/26 09:43:35;;;;;;;4.57;1.60;;;20.80;61.90;;;;;;5055470;28;20532;-63
2022/12/26 09:46:10;;;;;;;7.78;1.90;;;20.80;61.80;;;;;;5053681;28;20041;-64
2022/12/26 09:48:45;;;;;;;5.65;1.60;;;20.80;61.80;;;;;;5044920;28;20048;-64
2022/12/26 09:51:11;;;;;;;4.65;1.70;;;20.80;61.80;;;;;;5052817;28;20052;-63
2022/12/26 09:53:40;;;;;;;4.85;1.77;;;20.80;61.80;;;;;;5052654;28;20420;-64
2022/12/26 09:56:07;;;;;;;5.35;1.50;;;20.80;62.40;;;;;;5054117;28;20388;-64
2022/12/26 09:58:45;;;;;;;2.88;1.63;;;20.80;61.80;;;;;;5048950;28;20048;-64
2022/12/26 10:01:25;;;;;;;5.03;1.70;;;20.70;61.70;;;;;;5050030;28;20090;-63
2022/12/26 10:03:55;;;;;;;4.70;1.50;;;20.70;61.70;;;;;;5056441;28;20489;-64
2022/12/26 10:06:43;;;;;;;3.28;1.20;;;20.70;61.70;;;;;;5037755;28;20040;-63
2022/12/26 10:09:36;;;;;;;2.03;1.30;;;20.70;61.30;;;;;;5059926;28;20048;-64
2022/12/26 10:12:07;;;;;;;6.00;1.38;;;20.70;61.60;;;;;;5074937;28;20139;-64
2022/12/26 10:14:54;;;;;;;3.88;1.33;;;20.70;61.60;;;;;;5073934;28;20082;-64
2022/12/26 10:17:35;;;;;;;3.60;1.20;;;20.70;61.70;;;;;;5073230;28;20045;-64
2022/12/26 10:20:36;;;;;;;3.60;1.27;;;20.70;61.70;;;;;;5073163;28;20044;-63
2022/12/26 10:23:33;;;;;;;3.15;1.13;;;20.70;61.60;;;;;;5074633;28;20048;-63
2022/12/26 10:26:15;;;;;;;3.90;1.58;;;20.70;61.60;;;;;;5073415;28;20055;-64
2022/12/26 10:28:48;;;;;;;3.15;1.10;;;20.70;61.60;;;;;;5069988;28;20044;-64
2022/12/26 10:31:27;;;;;;;3.15;1.20;;;20.60;61.60;;;;;;5071998;28;20103;-63
2022/12/26 10:33:54;;;;;;;5.70;1.10;;;20.60;61.60;;;;;;5072617;28;20152;-64
2022/12/26 10:36:34;;;;;;;2.95;1.23;;;20.60;61.50;;;;;;5074138;28;20048;-64
2022/12/26 10:39:00;;;;;;;3.03;1.23;;;20.60;61.50;;;;;;5055493;28;20041;-65
2022/12/26 10:41:40;;;;;;;5.05;1.35;;;20.60;61.40;;;;;;5052744;28;20044;-65
2022/12/26 10:44:10;;;;;;;3.47;1.30;;;20.60;61.10;;;;;;5051278;28;20151;-64
2022/12/26 10:46:57;;;;;;;3.63;1.27;;;20.60;61.30;;;;;;5052229;28;20064;-63
2022/12/26 10:49:24;;;;;;;4.65;0.90;;;20.60;61.10;;;;;;5052600;28;20131;-66
2022/12/26 10:51:50;;;;;;;3.15;1.00;;;20.60;61.10;;;;;;5052217;28;20033;-64
2022/12/26 10:54:17;;;;;;;3.05;1.20;;;20.60;60.90;;;;;;5035705;28;20048;-65
2022/12/26 10:56:43;;;;;;;3.28;1.10;;;20.60;60.90;;;;;;5053724;28;20044;-64
2022/12/26 10:59:22;;;;;;;4.28;1.08;;;20.60;60.70;;;;;;5051222;28;20036;-64
2022/12/26 11:01:48;;;;;;;4.80;1.10;;;20.60;60.60;;;;;;5053286;28;20060;-64
2022/12/26 11:04:24;;;;;;;4.82;1.10;;;20.60;60.50;;;;;;5053606;28;20041;-64
2022/12/26 11:06:54;;;;;;;2.80;1.00;;;20.60;60.30;;;;;;5051787;28;20064;-65
2022/12/26 11:09:24;;;;;;;1.85;0.80;;;20.60;60.50;;;;;;5052064;28;20051;-64
2022/12/26 11:11:51;;;;;;;3.10;1.02;;;20.60;60.40;;;;;;5053399;28;20412;-66
2022/12/26 11:14:27;;;;;;;4.72;0.95;;;20.60;60.30;;;;;;5050985;28;20049;-65
2022/12/26 11:16:52;;;;;;;5.43;1.15;;;20.60;60.10;;;;;;5053072;28;20190;-64
2022/12/26 11:19:44;;;;;;;5.55;1.05;;;20.50;60.00;;;;;;5035041;28;20124;-64
2022/12/26 11:22:27;;;;;;;3.70;1.00;;;20.50;59.60;;;;;;5048930;28;20402;-62
2022/12/26 11:25:09;;;;;;;4.38;0.95;;;20.50;59.50;;;;;;5053217;28;20408;-63
2022/12/26 11:27:42;;;;;;;7.25;1.25;;;20.50;59.50;;;;;;5052584;28;20041;-63
2022/12/26 11:30:27;;;;;;;3.58;0.98;;;20.50;59.60;;;;;;5053058;28;20049;-62
2022/12/26 11:33:06;;;;;;;4.43;1.08;;;20.50;59.50;;;;;;5053452;28;20084;-64
2022/12/26 11:35:36;;;;;;;3.08;1.23;;;20.50;59.30;;;;;;5051074;28;20053;-63
2022/12/26 11:38:02;;;;;;;4.57;0.95;;;20.50;59.40;;;;;;5052396;28;20067;-70
2022/12/26 11:40:37;;;;;;;3.30;0.93;;;20.50;59.30;;;;;;5045931;28;20041;-65
2022/12/26 11:43:05;;;;;;;3.67;0.98;;;20.50;59.20;;;;;;5051198;28;20041;-65
2022/12/26 11:45:35;;;;;;;3.40;1.20;;;20.40;59.20;;;;;;5052960;28;20041;-65
2022/12/26 11:48:00;;;;;;;3.90;0.77;;;20.40;59.10;;;;;;5052622;28;20041;-64
2022/12/26 11:50:28;;;;;;;3.60;1.10;;;20.40;59.10;;;;;;5050620;28;20041;-62
2022/12/26 11:52:56;;;;;;;5.80;1.13;;;20.40;59.10;;;;;;5051562;28;20527;-63
2022/12/26 11:55:25;;;;;;;2.10;0.68;;;20.40;59.70;;;;;;5051591;28;20388;-61
2022/12/26 11:58:09;;;;;;;3.38;1.00;;;20.40;59.10;;;;;;5051469;28;20060;-62
2022/12/26 12:00:35;;;;;;;3.40;0.80;;;20.50;59.10;;;;;;5052727;28;20045;-62
2022/12/26 12:03:02;;;;;;;4.35;1.02;;;20.40;59.00;;;;;;5052305;28;20051;-62
2022/12/26 12:05:40;;;;;;;4.30;0.80;;;20.40;59.00;;;;;;5052639;28;20041;-62
2022/12/26 12:08:14;;;;;;;6.68;1.17;;;20.40;59.00;;;;;;5052936;28;20045;-62
2022/12/26 12:11:01;;;;;;;3.20;1.23;;;20.40;58.90;;;;;;5052319;28;20037;-62
2022/12/26 12:13:49;;;;;;;4.90;1.13;;;20.40;58.80;;;;;;5050905;28;20386;-62
2022/12/26 12:16:42;;;;;;;4.05;1.10;;;20.40;58.90;;;;;;5051730;28;20336;-65
2022/12/26 12:19:13;;;;;;;2.88;1.10;;;20.40;58.80;;;;;;5052166;28;20401;-62
2022/12/26 12:21:53;;;;;;;4.72;1.30;;;20.40;58.80;;;;;;5051267;28;20130;-60
2022/12/26 12:24:40;;;;;;;4.97;1.20;;;20.40;58.80;;;;;;5049641;28;20536;-61
2022/12/26 12:27:27;;;;;;;7.77;1.27;;;20.40;58.80;;;;;;5051767;28;20041;-60
2022/12/26 12:30:07;;;;;;;4.73;1.00;;;20.40;58.80;;;;;;5036351;28;20044;-60
2022/12/26 12:32:44;;;;;;;4.85;1.45;;;20.40;58.90;;;;;;5034250;28;20303;-60
2022/12/26 12:35:41;;;;;;;4.50;1.20;;;20.40;58.80;;;;;;5050572;28;20103;-61
2022/12/26 12:38:26;;;;;;;3.27;1.47;;;20.40;58.80;;;;;;5018052;28;20082;-61
2022/12/26 12:41:05;;;;;;;5.22;1.30;;;20.40;58.70;;;;;;5058019;28;20063;-61
2022/12/26 12:43:42;;;;;;;4.35;1.60;;;20.40;58.60;;;;;;5049980;28;20051;-61
2022/12/26 12:46:44;;;;;;;3.38;1.23;;;20.40;58.50;;;;;;5028142;28;20504;-61
2022/12/26 12:49:25;;;;;;;3.47;1.20;;;20.40;58.50;;;;;;5049786;28;20053;-61
2022/12/26 12:52:16;;;;;;;4.72;1.40;;;20.40;58.60;;;;;;5050389;28;20041;-61
2022/12/26 12:54:53;;;;;;;4.15;1.20;;;20.40;58.60;;;;;;5048533;28;20087;-60
2022/12/26 12:57:47;;;;;;;5.50;1.15;;;20.50;58.70;;;;;;5015993;28;20477;-60
2022/12/26 13:00:32;;;;;;;6.05;1.40;;;20.40;58.40;;;;;;5051261;28;20045;-64
2022/12/26 13:03:38;;;;;;;4.30;1.10;;;20.50;58.40;;;;;;5051104;28;20052;-65
2022/12/26 13:06:07;;;;;;;5.95;1.20;;;20.50;58.10;;;;;;5049976;28;20476;-65
2022/12/26 13:08:39;;;;;;;2.85;1.13;;;20.50;58.00;;;;;;5050854;28;20157;-65
2022/12/26 13:11:09;;;;;;;4.15;1.05;;;20.50;57.80;;;;;;5052173;28;20488;-64
2022/12/26 13:13:46;;;;;;;4.82;1.45;;;20.50;57.70;;;;;;5049778;28;20124;-65
2022/12/26 13:16:24;;;;;;;3.88;1.08;;;20.50;57.60;;;;;;5050469;28;20397;-64
2022/12/26 13:19:04;;;;;;;5.85;0.80;;;20.50;57.50;;;;;;5050961;28;20053;-65
2022/12/26 13:21:33;;;;;;;5.95;1.50;;;20.50;57.50;;;;;;5049774;28;20059;-65
2022/12/26 13:24:24;;;;;;;6.13;1.58;;;20.50;57.50;;;;;;5050649;28;20045;-65
2022/12/26 13:26:53;;;;;;;4.38;0.90;;;20.50;57.40;;;;;;5050331;28;20080;-64
2022/12/26 13:29:24;;;;;;;5.95;0.93;;;20.50;57.50;;;;;;5051871;28;20073;-64
2022/12/26 13:31:50;;;;;;;4.25;1.15;;;20.50;57.50;;;;;;5052231;28;20038;-65
2022/12/26 13:34:17;;;;;;;2.70;1.00;;;20.50;57.50;;;;;;5050341;28;20128;-74
2022/12/26 13:36:47;;;;;;;6.60;1.30;;;20.50;57.60;;;;;;5051573;28;20482;-59
2022/12/26 13:39:21;;;;;;;5.43;1.27;;;20.60;57.60;;;;;;5056524;28;20316;-59
2022/12/26 13:44:52;;;;;;;6.85;1.42;;;20.60;57.70;;;;;;5051805;28;20057;-60
2022/12/26 13:47:33;;;;;;;4.85;1.05;;;20.60;57.70;;;;;;5044928;28;20045;-65
2022/12/26 13:50:37;;;;;;;3.38;0.90;;;20.60;57.90;;;;;;5051693;28;20045;-61
2022/12/26 13:53:03;;;;;;;5.72;1.08;;;20.70;57.90;;;;;;5051702;28;20072;-63
2022/12/26 13:55:31;;;;;;;6.30;0.90;;;20.70;57.90;;;;;;5051960;28;20130;-62
2022/12/26 13:58:34;;;;;;;5.60;0.95;;;20.70;57.80;;;;;;5055615;28;20048;-62
2022/12/26 14:01:25;;;;;;;5.20;0.82;;;20.70;57.90;;;;;;5051685;28;20061;-60
2022/12/26 14:03:53;;;;;;;6.25;0.93;;;20.70;57.80;;;;;;5054814;28;20059;-61
2022/12/26 14:06:19;;;;;;;;;;;20.70;58.00;;;;;;5055182;28;20041;-60
2022/12/26 14:09:03;;;;;;;6.82;1.00;;;20.70;58.30;;;;;;5054428;28;19928;-61
2022/12/26 14:11:57;;;;;;;5.22;1.15;;;20.70;58.40;;;;;;5048504;28;20095;-61
2022/12/26 14:15:00;;;;;;;5.53;1.10;;;20.70;58.30;;;;;;5044600;28;20055;-61
2022/12/26 14:17:28;;;;;;;8.25;0.93;;;20.70;58.50;;;;;;5057012;28;20111;-61
2022/12/26 14:20:13;;;;;;;6.18;1.00;;;20.70;58.40;;;;;;5054773;28;20084;-61
2022/12/26 14:22:56;;;;;;;3.53;0.80;;;20.70;58.50;;;;;;5050911;28;20060;-60
2022/12/26 14:25:49;;;;;;;7.22;1.15;;;20.80;58.60;;;;;;5052494;28;20053;-62
2022/12/26 14:28:15;;;;;;;4.18;1.02;;;20.80;59.30;;;;;;5054154;28;20041;-61
2022/12/26 14:30:53;;;;;;;5.28;0.98;;;20.80;58.60;;;;;;5053185;28;20557;-61
2022/12/26 14:33:22;;;;;;;;;;;20.80;58.50;;;;;;5070603;28;20040;-60
2022/12/26 14:36:08;;;;;;;3.33;0.98;;;20.80;58.50;;;;;;5073842;28;19920;-60
2022/12/26 14:38:58;;;;;;;6.05;0.70;;;20.80;58.60;;;;;;5073247;28;20071;-61
2022/12/26 14:44:18;;;;;;;5.55;0.80;;;20.80;58.70;;;;;;5072609;28;20139;-61
2022/12/26 14:46:46;;;;;;;3.00;0.80;;;20.80;58.80;;;;;;5072899;28;20144;-61
2022/12/26 14:49:22;;;;;;;;;;;20.80;58.70;;;;;;5068731;28;20127;-60
2022/12/26 14:51:47;;;;;;;6.63;0.93;;;20.80;58.70;;;;;;5073442;28;20015;-61
2022/12/26 14:54:21;;;;;;;3.55;0.75;;;20.80;58.70;;;;;;5073905;28;20222;-60
2022/12/26 14:56:49;;;;;;;4.13;1.00;;;20.80;58.70;;;;;;5074157;28;20049;-61
2022/12/26 14:59:19;;;;;;;5.00;1.10;;;20.80;58.70;;;;;;5071436;28;20048;-60
2022/12/26 15:01:48;;;;;;;5.60;1.10;;;20.80;58.80;;;;;;5058462;28;20069;-61
2022/12/26 15:04:38;;;;;;;3.13;0.70;;;20.90;58.80;;;;;;5052961;28;20048;-61
2022/12/26 15:07:37;;;;;;;5.40;1.10;;;20.90;58.80;;;;;;5034304;28;20053;-61
2022/12/26 15:10:46;;;;;;;2.78;0.93;;;20.90;58.90;;;;;;5034576;28;20194;-61
2022/12/26 15:13:18;;;;;;;6.03;1.15;;;20.90;58.90;;;;;;5030062;28;20494;-60
2022/12/26 15:15:59;;;;;;;6.30;0.80;;;20.90;58.90;;;;;;5049805;28;20048;-60
2022/12/26 15:18:50;;;;;;;3.47;1.00;;;20.90;59.00;;;;;;5051987;28;20044;-62
2022/12/26 15:21:29;;;;;;;5.88;0.95;;;20.90;59.00;;;;;;5058278;28;20076;-61
2022/12/26 15:24:33;;;;;;;2.97;0.90;;;20.90;59.00;;;;;;5072205;28;20135;-60